createdAt,value
2019-04-29T00:00:06.601Z,83.30
2019-04-29T00:02:37.542Z,83.00
2019-04-29T00:05:07.349Z,83.00
2019-04-29T00:07:36.776Z,83.30
2019-04-29T00:10:06.927Z,83.00
2019-04-29T00:12:36.681Z,82.90
2019-04-29T00:15:08.638Z,82.70
2019-04-29T00:17:42.793Z,82.20
2019-04-29T00:20:26.191Z,82.60
2019-04-29T00:22:55.477Z,82.80
2019-04-29T00:25:25.214Z,83.00
2019-04-29T00:27:54.910Z,82.90
2019-04-29T00:30:24.361Z,83.10
2019-04-29T00:32:54.131Z,83.10
2019-04-29T00:35:23.863Z,82.60
2019-04-29T00:37:55.191Z,83.00
2019-04-29T00:40:26.175Z,83.20
2019-04-29T00:43:09.161Z,83.00
2019-04-29T00:45:38.529Z,83.00
2019-04-29T00:48:08.361Z,83.10
2019-04-29T00:50:38.866Z,83.00
2019-04-29T00:53:08.603Z,83.20
2019-04-29T00:55:38.317Z,83.40
2019-04-29T00:58:08.017Z,83.20
2019-04-29T01:00:39.385Z,83.60
2019-04-29T01:03:09.076Z,84.00
2019-04-29T01:05:38.536Z,85.00
2019-04-29T01:08:08.403Z,84.20
2019-04-29T01:10:38.217Z,84.20
2019-04-29T01:13:07.917Z,84.50
2019-04-29T01:15:37.629Z,84.80
2019-04-29T01:18:07.445Z,85.00
2019-04-29T01:20:37.154Z,84.60
2019-04-29T01:23:06.862Z,85.20
2019-04-29T01:25:36.470Z,85.10
2019-04-29T01:28:07.818Z,85.00
2019-04-29T01:30:43.173Z,84.50
2019-04-29T01:33:13.892Z,85.10
2019-04-29T01:35:43.604Z,84.70
2019-04-29T01:38:13.257Z,84.70
2019-04-29T01:40:47.221Z,84.10
2019-04-29T01:43:16.929Z,84.10
2019-04-29T01:45:46.645Z,84.50
2019-04-29T01:48:16.365Z,84.40
2019-04-29T01:50:47.193Z,84.20
2019-04-29T01:53:17.104Z,84.00
2019-04-29T01:55:46.422Z,84.20
2019-04-29T01:58:16.114Z,84.50
2019-04-29T02:00:45.827Z,84.30
2019-04-29T02:03:15.641Z,84.20
2019-04-29T02:05:45.367Z,83.80
2019-04-29T02:08:14.705Z,83.60
2019-04-29T02:10:44.256Z,84.20
2019-04-29T02:13:13.534Z,84.10
2019-04-29T02:15:43.171Z,84.20
2019-04-29T02:18:12.865Z,83.20
2019-04-29T02:20:42.146Z,83.20
2019-04-29T02:23:16.010Z,83.60
2019-04-29T02:25:46.631Z,83.40
2019-04-29T02:28:16.219Z,83.10
2019-04-29T02:30:47.472Z,82.60
2019-04-29T02:33:16.876Z,83.50
2019-04-29T02:35:46.582Z,83.00
2019-04-29T02:38:18.093Z,83.10
2019-04-29T02:41:04.531Z,83.10
2019-04-29T02:43:39.871Z,83.00
2019-04-29T02:46:09.688Z,82.80
2019-04-29T02:48:39.393Z,81.60
2019-04-29T02:51:09.207Z,82.30
2019-04-29T02:53:38.627Z,82.30
2019-04-29T02:56:08.526Z,82.20
2019-04-29T02:58:42.329Z,82.30
2019-04-29T03:01:25.161Z,82.50
2019-04-29T03:03:56.419Z,82.70
2019-04-29T03:06:26.011Z,82.30
2019-04-29T03:08:55.717Z,82.50
2019-04-29T03:11:25.522Z,82.30
2019-04-29T03:13:55.344Z,82.50
2019-04-29T03:16:25.060Z,82.30
2019-04-29T03:18:56.394Z,81.50
2019-04-29T03:21:31.020Z,81.90
2019-04-29T03:24:00.849Z,81.70
2019-04-29T03:26:30.651Z,81.70
2019-04-29T03:29:00.370Z,81.60
2019-04-29T03:31:30.093Z,81.50
2019-04-29T03:33:59.419Z,81.40
2019-04-29T03:36:29.082Z,81.30
2019-04-29T03:38:58.790Z,81.00
2019-04-29T03:41:28.283Z,81.00
2019-04-29T03:43:57.661Z,80.60
2019-04-29T03:46:27.011Z,81.00
2019-04-29T03:48:56.721Z,81.00
2019-04-29T03:51:26.045Z,81.00
2019-04-29T03:53:55.717Z,81.00
2019-04-29T03:56:25.438Z,80.90
2019-04-29T03:58:55.303Z,80.40
2019-04-29T04:01:26.598Z,80.30
2019-04-29T04:04:00.610Z,80.20
2019-04-29T04:06:31.601Z,80.10
2019-04-29T04:09:06.103Z,80.30
2019-04-29T04:11:33.735Z,80.60
2019-04-29T04:14:03.438Z,80.00
2019-04-29T04:16:51.175Z,80.70
2019-04-29T04:19:22.007Z,79.80
2019-04-29T04:21:51.825Z,79.20
2019-04-29T04:24:21.534Z,79.20
2019-04-29T04:26:51.240Z,79.50
2019-04-29T04:29:21.147Z,79.50
2019-04-29T04:31:50.763Z,79.40
2019-04-29T04:34:20.470Z,80.10
2019-04-29T04:36:50.178Z,79.30
2019-04-29T04:39:19.993Z,78.70
2019-04-29T04:41:49.593Z,79.40
2019-04-29T04:44:19.213Z,79.30
2019-04-29T04:46:48.926Z,79.00
2019-04-29T04:49:18.620Z,79.10
2019-04-29T04:51:48.242Z,79.00
2019-04-29T04:54:18.047Z,79.30
2019-04-29T04:56:47.754Z,79.10
2019-04-29T04:59:17.367Z,79.20
2019-04-29T05:01:46.747Z,79.00
2019-04-29T05:04:16.479Z,78.70
2019-04-29T05:06:45.866Z,77.80
2019-04-29T05:09:15.584Z,78.00
2019-04-29T05:11:45.210Z,77.80
2019-04-29T05:14:14.905Z,78.40
2019-04-29T05:16:44.726Z,78.00
2019-04-29T05:19:14.431Z,77.60
2019-04-29T05:21:44.242Z,77.90
2019-04-29T05:24:14.060Z,77.50
2019-04-29T05:26:44.476Z,77.60
2019-04-29T05:29:13.749Z,76.80
2019-04-29T05:31:43.122Z,76.50
2019-04-29T05:34:13.210Z,76.40
2019-04-29T05:36:49.984Z,76.40
2019-04-29T05:39:21.429Z,76.20
2019-04-29T05:41:51.133Z,75.80
2019-04-29T05:44:28.433Z,75.80
2019-04-29T05:46:59.317Z,75.90
2019-04-29T05:49:41.662Z,75.10
2019-04-29T05:52:15.485Z,75.20
2019-04-29T05:54:46.112Z,74.70
2019-04-29T05:57:15.822Z,73.90
2019-04-29T05:59:47.757Z,73.70
2019-04-29T06:02:16.467Z,73.10
2019-04-29T06:04:48.196Z,73.20
2019-04-29T06:07:21.623Z,72.30
2019-04-29T06:09:48.991Z,72.20
2019-04-29T06:12:18.689Z,72.60
2019-04-29T06:14:48.506Z,72.10
2019-04-29T06:17:17.890Z,71.10
2019-04-29T06:19:47.606Z,71.60
2019-04-29T06:22:17.222Z,71.90
2019-04-29T06:24:47.034Z,72.00
2019-04-29T06:27:16.838Z,70.80
2019-04-29T06:29:47.575Z,70.20
2019-04-29T06:32:20.272Z,70.80
2019-04-29T06:34:48.474Z,71.00
2019-04-29T06:37:18.027Z,70.80
2019-04-29T06:39:47.647Z,70.60
2019-04-29T06:42:19.608Z,70.60
2019-04-29T06:44:48.948Z,69.00
2019-04-29T06:47:19.752Z,68.90
2019-04-29T06:49:49.201Z,67.50
2019-04-29T06:52:18.858Z,68.80
2019-04-29T06:54:49.325Z,68.10
2019-04-29T06:57:19.255Z,67.80
2019-04-29T06:59:49.060Z,67.90
2019-04-29T07:02:18.717Z,68.20
2019-04-29T07:04:48.542Z,67.00
2019-04-29T07:07:38.936Z,66.50
2019-04-29T07:10:08.536Z,66.30
2019-04-29T07:12:42.718Z,66.00
2019-04-29T07:15:12.347Z,65.30
2019-04-29T07:17:43.071Z,64.80
2019-04-29T07:20:12.906Z,65.10
2019-04-29T07:22:42.720Z,63.00
2019-04-29T07:25:12.437Z,62.80
2019-04-29T07:27:44.237Z,64.10
2019-04-29T07:30:13.484Z,64.70
2019-04-29T07:32:46.984Z,64.30
2019-04-29T07:35:14.154Z,64.30
2019-04-29T07:37:43.845Z,64.80
2019-04-29T07:40:13.459Z,65.70
2019-04-29T07:42:43.165Z,64.10
2019-04-29T07:45:23.790Z,63.60
2019-04-29T07:47:57.016Z,63.90
2019-04-29T07:50:28.516Z,63.40
2019-04-29T07:52:58.002Z,62.80
2019-04-29T07:55:31.001Z,62.80
2019-04-29T07:57:59.754Z,64.20
2019-04-29T08:00:31.877Z,63.10
2019-04-29T08:03:01.962Z,62.80
2019-04-29T08:05:31.650Z,61.50
2019-04-29T08:08:01.256Z,59.50
2019-04-29T08:10:30.533Z,59.50
2019-04-29T08:13:00.378Z,58.90
2019-04-29T08:15:31.918Z,58.20
2019-04-29T08:18:06.584Z,58.80
2019-04-29T08:20:35.487Z,58.30
2019-04-29T08:23:04.190Z,57.60
2019-04-29T08:25:34.962Z,57.70
2019-04-29T08:28:04.773Z,59.50
2019-04-29T08:30:33.992Z,58.20
2019-04-29T08:33:07.430Z,59.50
2019-04-29T08:35:36.797Z,60.60
2019-04-29T08:38:06.070Z,58.80
2019-04-29T08:40:35.780Z,57.00
2019-04-29T08:43:23.631Z,56.50
2019-04-29T08:46:00.592Z,58.30
2019-04-29T08:48:30.378Z,57.90
2019-04-29T08:51:00.017Z,58.30
2019-04-29T08:53:29.731Z,57.70
2019-04-29T08:55:59.146Z,57.70
2019-04-29T08:58:28.847Z,56.50
2019-04-29T09:00:58.551Z,56.50
2019-04-29T09:03:39.675Z,55.60
2019-04-29T09:06:05.609Z,55.70
2019-04-29T09:08:32.973Z,56.10
2019-04-29T09:11:01.890Z,56.80
2019-04-29T09:13:31.621Z,58.20
2019-04-29T09:16:01.049Z,57.90
2019-04-29T09:18:30.717Z,58.10
2019-04-29T09:21:00.433Z,57.70
2019-04-29T09:23:31.320Z,57.70
2019-04-29T09:26:05.486Z,56.60
2019-04-29T09:28:35.295Z,55.90
2019-04-29T09:31:05.117Z,55.90
2019-04-29T09:33:34.918Z,55.80
2019-04-29T09:36:04.537Z,55.30
2019-04-29T09:38:36.877Z,55.20
2019-04-29T09:41:10.021Z,54.90
2019-04-29T09:43:47.280Z,54.80
2019-04-29T09:46:18.756Z,55.50
2019-04-29T09:48:48.209Z,56.60
2019-04-29T09:51:22.137Z,56.90
2019-04-29T09:53:49.089Z,56.40
2019-04-29T09:56:18.822Z,56.30
2019-04-29T09:58:48.506Z,56.70
2019-04-29T10:01:31.941Z,56.60
2019-04-29T10:04:02.932Z,56.60
2019-04-29T10:06:34.237Z,55.90
2019-04-29T10:09:06.398Z,55.40
2019-04-29T10:11:36.205Z,56.60
2019-04-29T10:14:05.918Z,55.80
2019-04-29T10:16:39.834Z,57.00
2019-04-29T10:19:10.473Z,56.50
2019-04-29T10:21:39.660Z,56.60
2019-04-29T10:24:09.209Z,57.40
2019-04-29T10:26:38.868Z,57.20
2019-04-29T10:29:13.775Z,55.80
2019-04-29T10:31:41.309Z,56.60
2019-04-29T10:34:13.937Z,57.40
2019-04-29T10:36:43.758Z,57.70
2019-04-29T10:39:32.072Z,58.70
2019-04-29T10:42:02.941Z,58.90
2019-04-29T10:44:50.774Z,59.20
2019-04-29T10:47:21.725Z,59.20
2019-04-29T10:50:01.970Z,59.30
2019-04-29T10:52:34.436Z,59.20
2019-04-29T10:55:03.027Z,59.30
2019-04-29T10:57:33.041Z,59.40
2019-04-29T11:00:06.778Z,60.00
2019-04-29T11:02:37.209Z,61.40
2019-04-29T11:05:21.938Z,62.10
2019-04-29T11:07:53.280Z,62.20
2019-04-29T11:10:25.553Z,62.40
2019-04-29T11:12:55.879Z,62.90
2019-04-29T11:15:30.639Z,63.60
2019-04-29T11:18:01.709Z,63.40
2019-04-29T11:20:29.845Z,62.10
2019-04-29T11:23:16.681Z,61.00
2019-04-29T11:25:42.871Z,62.10
2019-04-29T11:28:16.217Z,62.30
2019-04-29T11:30:43.396Z,62.70
2019-04-29T11:33:26.771Z,63.10
2019-04-29T11:36:05.836Z,62.50
2019-04-29T11:38:38.430Z,63.10
2019-04-29T11:41:06.720Z,62.60
2019-04-29T11:43:36.275Z,62.10
2019-04-29T11:46:09.786Z,62.20
2019-04-29T11:48:37.181Z,62.70
2019-04-29T11:51:24.818Z,61.90
2019-04-29T11:53:54.158Z,63.20
2019-04-29T11:56:23.821Z,62.30
2019-04-29T11:58:57.728Z,62.10
2019-04-29T12:01:40.033Z,61.90
2019-04-29T12:04:28.726Z,61.50
2019-04-29T12:06:58.186Z,61.60
2019-04-29T12:09:30.467Z,60.20
2019-04-29T12:11:59.462Z,61.30
2019-04-29T12:14:33.784Z,61.00
2019-04-29T12:17:19.050Z,59.70
2019-04-29T12:19:50.317Z,59.20
2019-04-29T12:22:30.065Z,59.40
2019-04-29T12:24:52.901Z,59.10
2019-04-29T12:27:22.752Z,59.80
2019-04-29T12:29:54.305Z,58.80
2019-04-29T12:32:27.861Z,59.10
2019-04-29T12:34:59.213Z,59.40
2019-04-29T12:37:36.235Z,59.20
2019-04-29T12:40:16.239Z,58.10
2019-04-29T12:42:59.674Z,58.80
2019-04-29T12:45:39.582Z,58.70
2019-04-29T12:48:08.965Z,59.60
2019-04-29T12:50:38.638Z,60.00
2019-04-29T12:53:08.754Z,59.60
2019-04-29T12:55:44.963Z,59.40
2019-04-29T12:58:11.962Z,58.40
2019-04-29T13:00:47.995Z,58.40
2019-04-29T13:03:17.425Z,57.90
2019-04-29T13:05:58.612Z,57.80
2019-04-29T13:08:26.478Z,59.20
2019-04-29T13:10:57.829Z,57.50
2019-04-29T13:13:27.732Z,56.80
2019-04-29T13:15:58.983Z,56.70
2019-04-29T13:18:36.693Z,56.30
2019-04-29T13:21:10.204Z,56.50
2019-04-29T13:23:53.612Z,56.50
2019-04-29T13:26:09.189Z,56.40
2019-04-29T13:28:58.470Z,56.60
2019-04-29T13:31:10.060Z,56.90
2019-04-29T13:33:39.760Z,57.60
2019-04-29T13:36:09.102Z,57.20
2019-04-29T13:38:38.974Z,57.20
2019-04-29T13:41:13.430Z,57.30
2019-04-29T13:43:39.939Z,58.20
2019-04-29T13:46:14.351Z,57.80
2019-04-29T13:51:37.865Z,57.60
2019-04-29T13:54:07.542Z,58.40
2019-04-29T13:56:54.667Z,58.70
2019-04-29T13:59:12.620Z,58.30
2019-04-29T14:02:00.031Z,58.10
2019-04-29T14:04:25.111Z,57.70
2019-04-29T14:06:57.252Z,58.00
2019-04-29T14:09:25.869Z,58.40
2019-04-29T14:12:02.092Z,58.50
2019-04-29T14:14:28.248Z,59.30
2019-04-29T14:17:11.893Z,59.20
2019-04-29T14:19:45.038Z,58.40
2019-04-29T14:22:01.276Z,58.20
2019-04-29T14:24:32.018Z,58.40
2019-04-29T14:27:01.825Z,58.20
2019-04-29T14:29:31.548Z,58.30
2019-04-29T14:32:01.565Z,58.00
2019-04-29T14:34:34.913Z,58.40
2019-04-29T14:37:19.752Z,58.20
2019-04-29T14:39:37.609Z,58.50
2019-04-29T14:42:20.878Z,59.10
2019-04-29T14:44:54.581Z,60.00
2019-04-29T14:47:42.024Z,59.90
2019-04-29T14:50:15.577Z,60.20
2019-04-29T14:52:48.955Z,60.50
2019-04-29T14:55:20.225Z,60.50
2019-04-29T14:57:47.027Z,61.40
2019-04-29T15:00:21.885Z,61.20
2019-04-29T15:02:51.070Z,60.70
2019-04-29T15:05:20.574Z,59.70
2019-04-29T15:07:50.565Z,59.50
2019-04-29T15:10:19.810Z,60.00
2019-04-29T15:13:03.350Z,59.90
2019-04-29T15:15:34.064Z,60.10
2019-04-29T15:18:15.321Z,60.60
2019-04-29T15:20:52.475Z,60.10
2019-04-29T15:23:28.721Z,60.50
2019-04-29T15:25:53.322Z,60.30
2019-04-29T15:28:23.151Z,60.40
2019-04-29T15:30:52.960Z,60.10
2019-04-29T15:33:22.762Z,61.00
2019-04-29T15:35:54.870Z,60.10
2019-04-29T15:38:23.340Z,60.50
2019-04-29T15:40:54.264Z,60.10
2019-04-29T15:43:45.099Z,61.90
2019-04-29T15:45:55.625Z,61.20
2019-04-29T15:48:25.330Z,62.20
2019-04-29T15:50:55.041Z,61.20
2019-04-29T15:53:24.763Z,60.30
2019-04-29T15:56:06.226Z,60.50
2019-04-29T15:58:27.653Z,60.70
2019-04-29T16:01:11.771Z,61.20
2019-04-29T16:03:28.549Z,61.80
2019-04-29T16:08:37.047Z,61.00
2019-04-29T16:11:29.008Z,61.10
2019-04-29T16:14:08.833Z,61.70
2019-04-29T16:16:30.282Z,62.30
2019-04-29T16:19:07.266Z,62.10
2019-04-29T16:21:32.363Z,62.80
2019-04-29T16:24:24.356Z,63.30
2019-04-29T16:26:34.782Z,63.70
2019-04-29T16:29:12.310Z,64.40
2019-04-29T16:31:36.181Z,63.80
2019-04-29T16:34:05.882Z,63.90
2019-04-29T16:36:35.130Z,63.50
2019-04-29T16:39:06.118Z,63.80
2019-04-29T16:41:39.015Z,63.90
2019-04-29T16:44:33.072Z,64.70
2019-04-29T16:46:41.909Z,64.60
2019-04-29T16:49:12.239Z,64.30
2019-04-29T16:51:42.095Z,64.40
2019-04-29T16:54:20.468Z,64.70
2019-04-29T16:56:46.597Z,65.30
2019-04-29T16:59:16.662Z,65.40
2019-04-29T17:01:47.446Z,65.40
2019-04-29T17:04:18.383Z,65.10
2019-04-29T17:07:11.246Z,65.50
2019-04-29T17:09:33.690Z,65.90
2019-04-29T17:12:03.878Z,66.90
2019-04-29T17:15:01.180Z,66.70
2019-04-29T17:17:06.694Z,66.40
2019-04-29T17:19:36.284Z,66.40
2019-04-29T17:22:24.942Z,66.50
2019-04-29T17:24:46.098Z,66.60
2019-04-29T17:27:23.576Z,66.70
2019-04-29T17:30:11.151Z,67.00
2019-04-29T17:32:47.235Z,67.00
2019-04-29T17:35:13.889Z,61.60
2019-04-29T17:35:21.259Z,67.20
2019-04-29T17:37:47.823Z,67.40
2019-04-29T17:40:19.490Z,67.20
2019-04-29T17:42:51.072Z,67.10
2019-04-29T17:45:30.760Z,67.50
2019-04-29T17:48:04.298Z,67.70
2019-04-29T17:50:44.692Z,67.90
2019-04-29T17:53:12.067Z,68.50
2019-04-29T17:55:45.306Z,68.20
2019-04-29T17:58:19.520Z,68.20
2019-04-29T18:00:59.664Z,68.90
2019-04-29T18:03:34.780Z,68.30
2019-04-29T18:06:17.284Z,69.20
2019-04-29T18:08:46.068Z,68.30
2019-04-29T18:11:15.780Z,68.60
2019-04-29T18:13:45.993Z,68.60
2019-04-29T18:16:22.131Z,68.70
2019-04-29T18:18:57.732Z,68.60
2019-04-29T18:21:43.311Z,68.80
2019-04-29T18:24:22.328Z,68.80
2019-04-29T18:26:54.123Z,68.90
2019-04-29T18:29:25.722Z,69.00
2019-04-29T18:31:55.699Z,69.00
2019-04-29T18:34:29.128Z,69.00
2019-04-29T18:37:00.373Z,69.60
2019-04-29T18:39:31.459Z,69.60
2019-04-29T18:42:03.368Z,69.30
2019-04-29T18:44:32.498Z,69.60
2019-04-29T18:47:01.823Z,69.80
2019-04-29T18:49:31.834Z,70.20
2019-04-29T18:52:05.663Z,70.40
2019-04-29T18:54:35.767Z,70.30
2019-04-29T18:57:06.878Z,70.40
2019-04-29T18:59:36.846Z,70.70
2019-04-29T19:02:09.254Z,70.60
2019-04-29T19:04:46.865Z,70.90
2019-04-29T19:07:17.262Z,71.10
2019-04-29T19:09:47.247Z,71.00
2019-04-29T19:12:17.083Z,71.30
2019-04-29T19:14:47.827Z,71.30
2019-04-29T19:17:17.668Z,71.50
2019-04-29T19:19:47.370Z,71.60
2019-04-29T19:22:17.182Z,71.80
2019-04-29T19:24:48.203Z,71.70
2019-04-29T19:27:17.883Z,72.10
2019-04-29T19:29:47.696Z,72.20
2019-04-29T19:32:18.867Z,72.50
2019-04-29T19:34:50.031Z,72.60
2019-04-29T19:37:20.125Z,72.60
2019-04-29T19:39:52.493Z,72.80
2019-04-29T19:42:29.056Z,73.00
2019-04-29T19:44:52.456Z,73.10
2019-04-29T19:47:22.270Z,73.00
2019-04-29T19:49:51.879Z,73.30
2019-04-29T19:52:30.531Z,73.30
2019-04-29T19:54:52.762Z,73.30
2019-04-29T19:57:22.450Z,73.40
2019-04-29T19:59:54.205Z,73.40
2019-04-29T20:02:25.556Z,73.60
2019-04-29T20:04:59.670Z,73.70
2019-04-29T20:07:30.388Z,73.80
2019-04-29T20:10:05.389Z,74.20
2019-04-29T20:12:32.390Z,74.10
2019-04-29T20:15:02.685Z,74.40
2019-04-29T20:17:51.585Z,74.40
2019-04-29T20:20:25.107Z,74.60
2019-04-29T20:22:55.656Z,74.50
2019-04-29T20:25:30.885Z,74.50
2019-04-29T20:28:05.947Z,74.70
2019-04-29T20:30:29.804Z,75.10
2019-04-29T20:33:08.931Z,75.00
2019-04-29T20:35:32.236Z,75.00
2019-04-29T20:38:02.275Z,75.10
2019-04-29T20:40:36.211Z,75.40
2019-04-29T20:43:05.247Z,75.60
2019-04-29T20:45:35.390Z,75.90
2019-04-29T20:48:06.469Z,75.70
2019-04-29T20:50:36.494Z,75.80
2019-04-29T20:53:11.035Z,75.90
2019-04-29T20:55:40.855Z,75.60
2019-04-29T20:58:10.432Z,75.90
2019-04-29T21:00:41.440Z,76.40
2019-04-29T21:03:11.644Z,76.10
2019-04-29T21:05:48.313Z,76.20
2019-04-29T21:08:16.387Z,76.30
2019-04-29T21:10:46.731Z,76.30
2019-04-29T21:13:20.561Z,76.60
2019-04-29T21:16:10.709Z,76.20
2019-04-29T21:18:40.384Z,76.10
2019-04-29T21:21:09.757Z,76.30
2019-04-29T21:23:39.530Z,76.30
2019-04-29T21:26:08.912Z,76.20
2019-04-29T21:28:41.788Z,76.20
2019-04-29T21:31:11.703Z,76.50
2019-04-29T21:33:41.533Z,76.20
2019-04-29T21:36:13.109Z,76.30
2019-04-29T21:38:45.457Z,76.40
2019-04-29T21:41:29.923Z,76.40
2019-04-29T21:44:00.227Z,76.40
2019-04-29T21:46:30.054Z,76.60
2019-04-29T21:48:59.711Z,76.50
2019-04-29T21:51:29.035Z,76.50
2019-04-29T21:53:58.781Z,76.60
2019-04-29T21:56:27.989Z,76.30
2019-04-29T21:58:57.578Z,76.40
2019-04-29T22:01:29.460Z,76.50
2019-04-29T22:04:02.153Z,76.60
2019-04-29T22:06:30.200Z,76.60
2019-04-29T22:09:01.440Z,76.60
2019-04-29T22:11:36.147Z,76.70
2019-04-29T22:14:05.447Z,76.40
2019-04-29T22:16:35.711Z,76.60
2019-04-29T22:19:05.074Z,76.30
2019-04-29T22:21:36.001Z,76.30
2019-04-29T22:24:06.352Z,76.30
2019-04-29T22:26:36.001Z,76.60
2019-04-29T22:29:05.679Z,76.40
2019-04-29T22:31:38.175Z,76.30
2019-04-29T22:34:10.075Z,76.10
2019-04-29T22:36:38.062Z,76.10
2019-04-29T22:39:07.840Z,75.80
2019-04-29T22:41:39.140Z,75.90
2019-04-29T22:44:10.487Z,76.00
2019-04-29T22:46:43.743Z,75.80
2019-04-29T22:49:11.249Z,75.50
2019-04-29T22:51:40.500Z,75.40
2019-04-29T22:54:10.251Z,75.60
2019-04-29T22:56:40.723Z,75.60
2019-04-29T22:59:14.683Z,75.60
2019-04-29T23:01:47.298Z,75.60
2019-04-29T23:04:17.692Z,75.70
2019-04-29T23:06:48.046Z,76.40
2019-04-29T23:09:16.600Z,76.00
2019-04-29T23:11:47.479Z,76.20
2019-04-29T23:14:17.350Z,76.40
2019-04-29T23:16:47.460Z,76.50
2019-04-29T23:19:18.925Z,76.50
2019-04-29T23:22:10.438Z,76.70
2019-04-29T23:24:41.178Z,77.10
2019-04-29T23:27:11.653Z,77.50
2019-04-29T23:29:43.346Z,78.00
2019-04-29T23:32:12.772Z,77.80
2019-04-29T23:34:42.477Z,78.10
2019-04-29T23:37:11.670Z,77.90
2019-04-29T23:39:41.482Z,77.90
2019-04-29T23:42:12.451Z,77.70
2019-04-29T23:44:44.151Z,78.00
2019-04-29T23:47:17.441Z,77.70
2019-04-29T23:49:46.811Z,77.60
2019-04-29T23:52:17.964Z,77.70
2019-04-29T23:54:48.619Z,77.50
2019-04-29T23:57:23.744Z,77.60
